Time;durP1;ratioP1;P1;durP2;ratioP2;P2;SDS_P1;SDS_P2;PMS_P1;PMS_P2;Temp;Humidity;BMP_temperature;BMP_pressure;BME280_temperature;BME280_humidity;BME280_pressure;Samples;Min_cycle;Max_cycle;Signal;HPM_P1;HPM_P2
2022/01/20 00:01:45;;;;;;;43.00;8.75;;;;;;;6.54;100.00;101393.63;8327730;28;20043;-63
2022/01/20 00:27:10;;;;;;;45.28;8.65;;;;;;;6.07;100.00;101398.28;8384588;28;20041;-62
2022/01/20 00:31:36;;;;;;;42.97;8.40;;;;;;;6.02;100.00;101411.13;8406982;27;20033;-62
2022/01/20 00:37:15;;;;;;;51.25;9.65;;;;;;;5.99;100.00;101400.56;8386187;28;20029;-62
2022/01/20 00:39:54;;;;;;;54.08;8.43;;;;;;;5.95;100.00;101404.38;8352536;28;20063;-62
2022/01/20 00:43:54;;;;;;;45.15;8.15;;;;;;;5.90;100.00;101401.09;8358688;27;20463;-62
2022/01/20 00:47:54;;;;;;;36.42;8.23;;;;;;;5.86;100.00;101416.50;8395027;27;20075;-62
2022/01/20 00:51:55;;;;;;;48.65;8.90;;;;;;;5.85;100.00;101411.22;8385209;28;20523;-62
2022/01/20 00:55:55;;;;;;;46.80;8.57;;;;;;;5.88;100.00;101429.81;8387221;28;20390;-63
2022/01/20 00:59:56;;;;;;;43.67;9.07;;;;;;;5.81;100.00;101425.75;8384062;28;20032;-63
2022/01/20 01:03:56;;;;;;;59.17;9.23;;;;;;;5.78;100.00;101431.28;8399331;27;20408;-63
2022/01/20 01:07:57;;;;;;;40.15;8.93;;;;;;;5.76;100.00;101438.53;8368509;27;20269;-63
2022/01/20 01:12:02;;;;;;;48.85;9.43;;;;;;;5.66;100.00;101445.41;8369809;28;20458;-63
2022/01/20 01:16:04;;;;;;;40.20;8.82;;;;;;;5.65;100.00;101443.69;8382895;28;20024;-63
2022/01/20 01:20:14;;;;;;;38.65;8.10;;;;;;;5.58;100.00;101442.31;8368183;28;20051;-63
2022/01/20 01:24:14;;;;;;;38.63;9.15;;;;;;;5.55;100.00;101442.47;8362041;28;20033;-63
2022/01/20 01:28:16;;;;;;;47.78;8.85;;;;;;;5.62;100.00;101427.75;8361172;28;20515;-62
2022/01/20 01:32:20;;;;;;;37.08;8.95;;;;;;;5.64;100.00;101432.06;8362079;28;20108;-63
2022/01/20 01:36:22;;;;;;;45.57;9.20;;;;;;;5.74;100.00;101438.63;8366890;28;20037;-62
2022/01/20 01:40:28;;;;;;;44.63;10.68;;;;;;;5.69;100.00;101437.19;8361949;28;20052;-63
2022/01/20 01:44:30;;;;;;;45.13;7.80;;;;;;;5.61;100.00;101444.78;8362341;28;20432;-63
2022/01/20 01:48:31;;;;;;;38.15;7.20;;;;;;;5.56;100.00;101446.88;8356136;28;20044;-63
2022/01/20 01:52:32;;;;;;;39.90;7.30;;;;;;;5.58;100.00;101431.56;8361838;28;20065;-63
2022/01/20 01:56:35;;;;;;;50.50;7.82;;;;;;;5.59;100.00;101433.28;8362703;28;20096;-63
2022/01/20 02:00:36;;;;;;;48.80;8.20;;;;;;;5.67;100.00;101436.38;8374581;28;20033;-63
2022/01/20 02:04:36;;;;;;;36.55;6.18;;;;;;;5.73;100.00;101436.03;8385004;28;20052;-63
2022/01/20 02:08:44;;;;;;;36.58;6.25;;;;;;;5.83;100.00;101437.31;8380993;28;20048;-63
2022/01/20 02:18:36;;;;;;;29.08;6.18;;;;;;;6.00;100.00;101418.38;8371038;28;20480;-63
2022/01/20 02:21:32;;;;;;;39.90;7.05;;;;;;;6.07;100.00;101433.16;8369559;28;20063;-63
2022/01/20 02:25:36;;;;;;;32.72;5.53;;;;;;;6.06;100.00;101422.56;8371016;28;20033;-63
2022/01/20 02:29:36;;;;;;;43.33;6.80;;;;;;;6.08;100.00;101435.75;8384121;28;20044;-63
2022/01/20 02:33:37;;;;;;;36.42;6.95;;;;;;;5.99;100.00;101424.72;8394629;28;20033;-63
2022/01/20 02:37:38;;;;;;;34.70;6.43;;;;;;;5.94;100.00;101430.34;8381858;28;20478;-63
2022/01/20 02:46:05;;;;;;;38.50;7.25;;;;;;;5.91;100.00;101432.34;8368859;28;20089;-63
2022/01/20 02:50:06;;;;;;;33.85;5.97;;;;;;;5.91;100.00;101430.53;8359074;28;20037;-63
2022/01/20 02:54:09;;;;;;;32.92;5.85;;;;;;;5.93;100.00;101433.13;8383309;28;20040;-63
2022/01/20 02:58:10;;;;;;;38.00;5.35;;;;;;;5.92;100.00;101436.78;8373753;28;20036;-63
2022/01/20 03:02:10;;;;;;;33.83;5.20;;;;;;;5.94;100.00;101435.72;8392114;28;20032;-63
2022/01/20 03:06:11;;;;;;;39.63;6.28;;;;;;;5.98;100.00;101445.31;8377204;28;20474;-63
2022/01/20 03:10:11;;;;;;;26.77;4.90;;;;;;;5.91;100.00;101443.94;8384797;28;20115;-63
2022/01/20 03:14:14;;;;;;;33.75;6.00;;;;;;;5.83;100.00;101440.81;8367268;28;20035;-63
2022/01/20 03:18:14;;;;;;;24.15;4.80;;;;;;;5.76;100.00;101427.81;8359577;28;20086;-63
2022/01/20 03:22:15;;;;;;;22.55;3.85;;;;;;;5.66;100.00;101442.72;8358931;28;20481;-63
2022/01/20 03:26:16;;;;;;;12.73;2.85;;;;;;;5.58;100.00;101431.56;8358956;28;20119;-63
2022/01/20 03:30:16;;;;;;;23.98;3.30;;;;;;;5.47;100.00;101433.97;8357055;28;20382;-63
2022/01/20 03:34:17;;;;;;;21.55;4.15;;;;;;;5.51;100.00;101435.53;8358820;28;20031;-63
2022/01/20 03:38:18;;;;;;;23.38;4.68;;;;;;;5.52;100.00;101422.03;8335117;28;20026;-64
2022/01/20 03:42:18;;;;;;;31.67;5.40;;;;;;;5.53;100.00;101415.75;8325010;28;20506;-63
2022/01/20 03:46:19;;;;;;;28.48;4.90;;;;;;;5.59;100.00;101422.56;8325602;28;20150;-63
2022/01/20 03:51:21;;;;;;;25.85;4.63;;;;;;;5.63;100.00;101424.09;8338567;28;20064;-63
2022/01/20 03:54:39;;;;;;;16.30;3.03;;;;;;;5.65;100.00;101414.16;8362970;28;20044;-64
2022/01/20 03:58:40;;;;;;;17.17;3.72;;;;;;;5.71;100.00;101420.03;8372697;28;20044;-63
2022/01/20 04:02:41;;;;;;;24.27;3.60;;;;;;;5.71;100.00;101411.13;8389078;28;20580;-63
2022/01/20 04:06:42;;;;;;;17.27;3.25;;;;;;;5.73;100.00;101398.47;8373728;28;20428;-63
2022/01/20 04:10:42;;;;;;;23.25;3.80;;;;;;;5.74;100.00;101395.72;8387430;28;20036;-63
2022/01/20 04:14:47;;;;;;;22.60;4.43;;;;;;;5.72;100.00;101391.41;8361866;28;20059;-64
2022/01/20 04:18:53;;;;;;;23.02;3.55;;;;;;;5.72;100.00;101399.44;8358161;28;20040;-63
2022/01/20 04:22:53;;;;;;;24.75;3.90;;;;;;;5.80;100.00;101405.25;8357834;28;20048;-63
2022/01/20 04:26:54;;;;;;;23.63;3.67;;;;;;;5.87;100.00;101401.28;8357570;28;20041;-63
2022/01/20 04:30:54;;;;;;;20.15;3.15;;;;;;;5.89;100.00;101402.91;8356344;28;20409;-63
2022/01/20 04:34:55;;;;;;;15.90;3.60;;;;;;;5.87;100.00;101406.66;8356193;28;20121;-63
2022/01/20 04:38:56;;;;;;;21.45;4.30;;;;;;;5.99;100.00;101389.81;8331135;28;20552;-64
2022/01/20 04:42:56;;;;;;;15.63;3.28;;;;;;;5.99;100.00;101395.19;8359478;28;20519;-63
2022/01/20 04:47:09;;;;;;;18.85;4.03;;;;;;;6.01;100.00;101401.34;8374778;28;20422;-63
2022/01/20 04:57:17;;;;;;;20.85;3.83;;;;;;;5.83;100.00;101391.69;8393232;28;20147;-63
2022/01/20 04:59:53;;;;;;;28.27;3.80;;;;;;;5.78;100.00;101405.34;8396250;28;20370;-64
2022/01/20 05:03:55;;;;;;;17.63;3.10;;;;;;;5.86;100.00;101410.28;8367841;28;20477;-63
2022/01/20 05:07:55;;;;;;;21.15;3.83;;;;;;;5.80;100.00;101415.97;8359514;28;20421;-63
2022/01/20 05:12:03;;;;;;;13.30;3.10;;;;;;;5.81;100.00;101407.88;8352667;28;20056;-63
2022/01/20 05:16:04;;;;;;;18.75;4.07;;;;;;;5.97;100.00;101414.06;8326478;28;20120;-63
2022/01/20 05:20:05;;;;;;;22.40;4.03;;;;;;;5.97;100.00;101427.50;8360242;28;20041;-63
2022/01/20 05:24:05;;;;;;;19.10;3.63;;;;;;;5.93;100.00;101425.06;8373041;28;20081;-63
2022/01/20 05:28:06;;;;;;;22.35;4.03;;;;;;;5.91;100.00;101429.66;8363702;28;20040;-63
2022/01/20 05:32:07;;;;;;;22.00;5.53;;;;;;;5.89;100.00;101423.53;8369020;28;20033;-63
2022/01/20 05:36:07;;;;;;;16.10;4.18;;;;;;;5.94;100.00;101432.16;8376338;28;20033;-63
2022/01/20 05:40:08;;;;;;;19.90;5.72;;;;;;;5.96;100.00;101444.56;8357351;28;20033;-63
2022/01/20 05:44:08;;;;;;;17.25;4.80;;;;;;;5.94;100.00;101418.75;8358731;28;20037;-63
2022/01/20 05:48:13;;;;;;;15.82;4.25;;;;;;;5.90;100.00;101433.28;8347208;28;20045;-63
2022/01/20 05:52:15;;;;;;;22.92;5.45;;;;;;;5.87;100.00;101441.53;8353881;28;20496;-63
2022/01/20 05:56:15;;;;;;;16.55;6.18;;;;;;;5.86;100.00;101431.75;8372099;28;20502;-63
2022/01/20 06:00:22;;;;;;;20.15;6.65;;;;;;;5.74;100.00;101443.16;8369540;28;20055;-63
2022/01/20 06:04:23;;;;;;;31.63;6.97;;;;;;;5.72;100.00;101455.78;8367758;28;20037;-63
2022/01/20 06:08:24;;;;;;;29.85;7.55;;;;;;;5.75;100.00;101450.25;8357196;28;20048;-63
2022/01/20 06:12:24;;;;;;;30.00;7.13;;;;;;;5.88;100.00;101462.03;8356640;28;20033;-63
2022/01/20 06:16:24;;;;;;;29.27;6.95;;;;;;;5.88;100.00;101467.41;8368433;28;20088;-63
2022/01/20 06:20:25;;;;;;;29.92;6.97;;;;;;;5.79;100.00;101463.41;8364215;28;20435;-63
2022/01/20 06:24:25;;;;;;;32.17;7.32;;;;;;;5.74;100.00;101475.34;8372288;28;20036;-63
2022/01/20 06:28:26;;;;;;;26.00;5.80;;;;;;;5.70;100.00;101481.81;8372072;28;20048;-63
2022/01/20 06:32:27;;;;;;;24.23;6.47;;;;;;;5.65;100.00;101495.50;8364323;28;20130;-63
2022/01/20 06:36:27;;;;;;;24.50;8.35;;;;;;;5.59;100.00;101503.03;8361618;28;20045;-62
2022/01/20 06:40:28;;;;;;;26.42;7.38;;;;;;;5.56;100.00;101509.44;8350432;28;20041;-62
2022/01/20 06:44:28;;;;;;;20.35;6.75;;;;;;;5.53;100.00;101524.81;8365489;28;20090;-63
2022/01/20 06:48:29;;;;;;;28.73;8.88;;;;;;;5.43;100.00;101532.50;8362223;28;20052;-62
2022/01/20 06:52:29;;;;;;;19.10;7.43;;;;;;;5.31;100.00;101535.84;8371262;28;20044;-63
2022/01/20 06:56:31;;;;;;;21.42;8.50;;;;;;;5.25;100.00;101543.34;8369955;28;20041;-63
2022/01/20 07:00:32;;;;;;;31.00;8.20;;;;;;;5.20;100.00;101558.81;8352477;28;20033;-63
2022/01/20 07:04:32;;;;;;;26.92;8.82;;;;;;;5.11;100.00;101556.63;8344146;28;20037;-63
2022/01/20 07:08:33;;;;;;;27.60;7.03;;;;;;;5.09;100.00;101571.94;8365981;28;20072;-63
2022/01/20 07:12:33;;;;;;;20.58;6.90;;;;;;;5.11;100.00;101570.91;8365127;28;20549;-63
2022/01/20 07:16:34;;;;;;;18.48;7.03;;;;;;;5.12;100.00;101583.34;8369293;28;20044;-62
2022/01/20 07:20:35;;;;;;;18.63;6.53;;;;;;;5.14;100.00;101600.22;8360560;28;20041;-63
2022/01/20 07:24:35;;;;;;;27.80;7.32;;;;;;;5.15;100.00;101611.78;8355894;28;20029;-63
2022/01/20 07:28:36;;;;;;;23.13;6.93;;;;;;;5.18;100.00;101609.81;8377987;28;20476;-63
2022/01/20 07:32:36;;;;;;;21.77;5.60;;;;;;;5.17;100.00;101617.94;8366214;28;20056;-62
2022/01/20 07:36:37;;;;;;;23.85;6.47;;;;;;;5.19;100.00;101619.59;8360981;28;20063;-63
2022/01/20 07:40:37;;;;;;;16.58;4.90;;;;;;;5.19;100.00;101632.16;8364633;28;20488;-63
2022/01/20 07:44:37;;;;;;;22.23;4.35;;;;;;;5.19;100.00;101648.22;8355316;28;20040;-62
2022/01/20 07:48:38;;;;;;;19.83;4.15;;;;;;;5.14;100.00;101645.78;8340982;28;20342;-63
2022/01/20 07:52:38;;;;;;;22.35;3.55;;;;;;;5.08;100.00;101650.56;8361211;28;20032;-63
2022/01/20 07:56:39;;;;;;;13.27;3.10;;;;;;;5.02;100.00;101656.25;8362039;28;20124;-63
2022/01/20 08:00:39;;;;;;;15.98;3.85;;;;;;;4.96;100.00;101659.22;8344135;28;20272;-63
2022/01/20 08:04:40;;;;;;;11.18;3.05;;;;;;;4.93;100.00;101667.44;8343547;28;20040;-63
2022/01/20 08:08:40;;;;;;;13.00;2.50;;;;;;;4.98;100.00;101662.72;8350838;28;20083;-63
2022/01/20 08:12:41;;;;;;;19.75;3.40;;;;;;;4.96;100.00;101659.22;8331555;28;20070;-63
2022/01/20 08:16:41;;;;;;;25.98;4.00;;;;;;;5.00;100.00;101669.72;8324311;28;20080;-63
2022/01/20 08:20:42;;;;;;;21.33;3.33;;;;;;;4.97;100.00;101659.16;8327721;28;20068;-63
2022/01/20 08:24:42;;;;;;;15.80;2.08;;;;;;;5.00;100.00;101674.22;8319246;28;20037;-63
2022/01/20 08:28:43;;;;;;;19.35;2.97;;;;;;;4.89;100.00;101676.56;8322178;28;20037;-62
2022/01/20 08:32:44;;;;;;;19.52;3.83;;;;;;;4.82;100.00;101669.78;8335172;28;20052;-63
2022/01/20 08:36:44;;;;;;;13.35;2.75;;;;;;;5.03;100.00;101679.44;8335270;28;20439;-63
2022/01/20 08:40:45;;;;;;;15.77;3.08;;;;;;;5.39;100.00;101688.25;8344247;28;20029;-63
2022/01/20 08:44:46;;;;;;;14.93;2.17;;;;;;;5.47;100.00;101691.44;8343375;28;20090;-63
2022/01/20 08:48:46;;;;;;;16.45;3.17;;;;;;;5.39;100.00;101709.72;8349193;28;20406;-63
2022/01/20 08:52:47;;;;;;;22.92;2.20;;;;;;;5.38;100.00;101708.00;8342975;28;20041;-62
2022/01/20 08:56:49;;;;;;;17.42;2.95;;;;;;;5.39;100.00;101693.63;8343949;28;20055;-63
2022/01/20 09:00:49;;;;;;;20.77;2.58;;;;;;;5.73;99.56;101707.00;8341959;28;20034;-63
2022/01/20 09:04:51;;;;;;;16.33;2.45;;;;;;;5.86;97.11;101705.47;8336871;28;20056;-62
2022/01/20 09:08:51;;;;;;;20.08;3.05;;;;;;;5.99;94.61;101722.63;8337868;28;20038;-63
2022/01/20 09:17:15;;;;;;;27.80;2.75;;;;;;;6.32;93.57;101742.28;8338045;28;20041;-64
2022/01/20 09:21:20;;;;;;;23.20;2.60;;;;;;;7.74;85.71;101746.47;8343381;28;20082;-63
2022/01/20 09:25:23;;;;;;;15.52;2.35;;;;;;;8.94;80.93;101731.69;8336378;28;20072;-63
2022/01/20 09:29:23;;;;;;;20.35;3.03;;;;;;;8.60;79.44;101729.44;8324698;28;20033;-63
2022/01/20 09:33:27;;;;;;;18.17;3.10;;;;;;;8.02;79.38;101741.13;8340041;28;20497;-63
2022/01/20 09:37:27;;;;;;;5.93;1.83;;;;;;;6.89;83.38;101739.03;8342576;28;20036;-63
2022/01/20 09:41:28;;;;;;;23.35;2.38;;;;;;;6.30;85.35;101748.69;8325204;28;20300;-63
2022/01/20 09:45:29;;;;;;;11.70;2.10;;;;;;;6.07;86.28;101753.47;8325133;28;20116;-63
2022/01/20 09:49:29;;;;;;;12.25;2.25;;;;;;;5.91;84.73;101768.66;8338963;28;20033;-63
2022/01/20 09:53:31;;;;;;;15.82;2.03;;;;;;;5.87;83.52;101769.78;8359472;28;20048;-63
2022/01/20 09:57:31;;;;;;;16.92;1.90;;;;;;;5.76;84.38;101784.66;8326102;28;20460;-63
2022/01/20 10:01:43;;;;;;;17.33;1.92;;;;;;;5.75;83.41;101777.56;8354037;28;20036;-63
2022/01/20 10:05:48;;;;;;;18.77;2.15;;;;;;;8.21;79.13;101796.56;8347148;28;20042;-63
2022/01/20 10:09:49;;;;;;;18.25;2.60;;;;;;;10.07;73.09;101791.44;8322688;28;20037;-64
2022/01/20 10:13:50;;;;;;;19.77;2.72;;;;;;;10.24;72.75;101789.28;8327074;28;20509;-63
2022/01/20 10:17:50;;;;;;;13.93;2.50;;;;;;;8.77;76.33;101788.50;8324066;28;20588;-63
2022/01/20 10:21:51;;;;;;;22.88;3.97;;;;;;;7.45;81.62;101793.13;8363752;28;20169;-63
2022/01/20 10:26:03;;;;;;;22.25;3.05;;;;;;;6.78;83.39;101797.91;8353021;28;20041;-63
2022/01/20 10:30:07;;;;;;;17.67;3.50;;;;;;;6.63;85.35;101801.44;8343134;28;20163;-64
2022/01/20 10:34:30;;;;;;;21.65;3.72;;;;;;;6.56;87.11;101799.19;8361638;28;20519;-63
2022/01/20 10:38:31;;;;;;;21.95;3.92;;;;;;;6.52;87.57;101817.28;8345844;28;20043;-64
2022/01/20 10:42:36;;;;;;;18.13;3.15;;;;;;;6.64;88.44;101813.91;8323124;28;20049;-64
2022/01/20 10:46:48;;;;;;;18.50;2.60;;;;;;;6.56;88.04;101816.16;8323783;28;20064;-64
2022/01/20 10:50:49;;;;;;;22.63;3.05;;;;;;;6.67;87.36;101813.75;8334286;28;20472;-63
2022/01/20 10:54:53;;;;;;;16.20;3.03;;;;;;;6.91;86.98;101815.09;8344157;28;20092;-64
2022/01/20 10:58:54;;;;;;;;;;;;;;;6.70;84.92;101816.28;8346275;28;20642;-63
2022/01/20 11:02:58;;;;;;;22.73;3.00;;;;;;;7.29;83.42;101811.06;8327641;28;20301;-64
2022/01/20 11:07:03;;;;;;;17.17;2.92;;;;;;;9.31;73.90;101801.13;8344862;28;20523;-64
2022/01/20 11:11:04;;;;;;;18.60;2.40;;;;;;;9.12;74.74;101796.06;8325851;28;20103;-64
2022/01/20 11:15:08;;;;;;;17.05;2.33;;;;;;;7.97;76.37;101797.09;8326061;28;20041;-64
2022/01/20 11:19:18;;;;;;;10.90;1.90;;;;;;;7.12;81.02;101788.78;8334865;28;20065;-64
2022/01/20 11:23:18;;;;;;;19.52;2.78;;;;;;;6.83;82.92;101803.88;8336424;28;20033;-63
2022/01/20 11:27:19;;;;;;;22.15;3.25;;;;;;;6.63;83.99;101798.75;8330061;28;20511;-63
2022/01/20 11:31:29;;;;;;;19.33;2.33;;;;;;;6.45;83.61;101798.88;8340774;28;20029;-63
2022/01/20 11:35:51;;;;;;;20.70;2.45;;;;;;;6.47;81.66;101805.94;8356739;28;20040;-63
2022/01/20 11:39:53;;;;;;;14.20;2.60;;;;;;;6.55;82.89;101802.78;8319763;28;20029;-63
2022/01/20 11:43:53;;;;;;;13.02;2.20;;;;;;;6.56;83.93;101815.28;8321091;28;20033;-63
2022/01/20 11:47:55;;;;;;;17.83;2.97;;;;;;;6.18;84.64;101809.28;8327405;28;20049;-63
2022/01/20 11:51:58;;;;;;;15.00;3.55;;;;;;;5.76;87.48;101849.03;8328529;28;20056;-62
2022/01/20 11:55:59;;;;;;;14.23;1.67;;;;;;;4.31;93.24;101848.97;8328265;28;20375;-63
2022/01/20 12:00:03;;;;;;;12.18;1.77;;;;;;;3.86;96.88;101831.34;8354640;28;20045;-64
2022/01/20 12:04:04;;;;;;;10.55;1.10;;;;;;;4.01;98.32;101819.97;8357194;28;20048;-64
2022/01/20 12:08:19;;;;;;;8.88;1.45;;;;;;;4.24;99.90;101804.69;8365179;28;20045;-64
2022/01/20 12:12:25;;;;;;;19.20;2.53;;;;;;;4.54;98.35;101809.50;8336710;28;20029;-63
2022/01/20 12:16:26;;;;;;;20.67;2.45;;;;;;;6.28;92.12;101799.78;8320446;28;20060;-63
2022/01/20 12:20:26;;;;;;;25.85;3.05;;;;;;;8.48;82.00;101795.75;8349056;28;20038;-63
2022/01/20 12:24:27;;;;;;;18.77;2.03;;;;;;;9.32;74.70;101786.66;8369111;28;20030;-63
2022/01/20 12:28:27;;;;;;;13.13;2.38;;;;;;;9.36;72.99;101788.16;8333023;28;20037;-63
2022/01/20 12:32:28;;;;;;;23.80;2.58;;;;;;;8.94;74.95;101801.78;8327340;28;20124;-63
2022/01/20 12:36:28;;;;;;;12.23;2.50;;;;;;;9.42;72.74;101785.06;8326995;28;20029;-63
2022/01/20 12:40:29;;;;;;;13.55;2.45;;;;;;;10.21;71.47;101784.09;8329044;28;20046;-63
2022/01/20 12:44:47;;;;;;;20.27;2.75;;;;;;;9.71;71.87;101778.59;8339476;28;20091;-63
2022/01/20 12:48:59;;;;;;;20.70;2.55;;;;;;;9.19;72.43;101785.75;8355415;28;20041;-63
2022/01/20 12:52:59;;;;;;;25.13;3.33;;;;;;;8.91;73.46;101775.03;8327628;28;20049;-63
2022/01/20 12:57:03;;;;;;;16.08;2.88;;;;;;;8.66;75.28;101774.88;8334547;28;20052;-63
2022/01/20 13:01:04;;;;;;;10.18;2.13;;;;;;;8.61;76.18;101776.97;8335252;28;20037;-62
2022/01/20 13:05:06;;;;;;;10.63;2.20;;;;;;;8.04;75.98;101760.78;8334725;28;20037;-62
2022/01/20 13:09:09;;;;;;;14.68;2.65;;;;;;;7.85;75.01;101760.16;8322863;28;20171;-63
2022/01/20 13:13:16;;;;;;;20.23;2.42;;;;;;;7.34;75.77;101757.88;8342154;28;20039;-64
2022/01/20 13:17:27;;;;;;;27.65;2.45;;;;;;;7.15;76.94;101756.34;8326721;28;20053;-63
2022/01/20 13:21:51;;;;;;;16.45;2.30;;;;;;;6.89;77.57;101749.78;8340227;28;20052;-63
2022/01/20 13:26:04;;;;;;;18.60;2.75;;;;;;;6.90;77.66;101751.53;8352291;28;20495;-63
2022/01/20 13:30:05;;;;;;;15.70;2.72;;;;;;;6.92;78.21;101754.97;8362102;28;20077;-63
2022/01/20 13:34:10;;;;;;;17.30;2.10;;;;;;;7.47;78.77;101764.28;8360862;28;20045;-63
2022/01/20 13:38:11;;;;;;;17.67;1.98;;;;;;;7.40;75.80;101757.53;8330214;28;20037;-63
2022/01/20 13:42:38;;;;;;;15.13;2.88;;;;;;;7.14;75.20;101755.47;8324871;28;20528;-63
2022/01/20 13:46:38;;;;;;;12.98;1.90;;;;;;;7.15;76.08;101748.28;8354408;28;20044;-63
2022/01/20 13:50:42;;;;;;;10.98;1.60;;;;;;;7.24;72.48;101751.31;8334353;28;20041;-63
2022/01/20 13:54:46;;;;;;;15.43;1.70;;;;;;;7.40;73.85;101749.47;8338455;28;20033;-63
2022/01/20 13:58:47;;;;;;;15.57;1.65;;;;;;;7.36;73.36;101749.72;8339314;28;20288;-63
2022/01/20 14:02:49;;;;;;;14.90;2.35;;;;;;;6.99;72.79;101747.44;8339039;28;20120;-63
2022/01/20 14:06:49;;;;;;;14.60;2.15;;;;;;;6.81;73.30;101756.53;8339891;28;20136;-63
2022/01/20 14:10:49;;;;;;;16.75;1.70;;;;;;;6.75;73.84;101762.28;8343146;28;20037;-63
2022/01/20 14:14:50;;;;;;;13.93;2.03;;;;;;;6.71;74.83;101774.16;8338441;28;20087;-63
2022/01/20 14:18:57;;;;;;;8.95;1.60;;;;;;;6.62;74.47;101782.72;8341183;28;20029;-63
2022/01/20 14:23:00;;;;;;;15.15;1.70;;;;;;;6.55;73.78;101778.63;8355471;28;20141;-63
2022/01/20 14:27:10;;;;;;;12.83;1.43;;;;;;;6.52;74.87;101785.03;8344923;28;20041;-63
2022/01/20 14:31:10;;;;;;;16.15;1.90;;;;;;;6.58;74.62;101797.25;8338174;28;20099;-63
2022/01/20 14:35:11;;;;;;;8.80;1.63;;;;;;;6.78;73.48;101792.53;8309264;28;20037;-63
2022/01/20 14:39:12;;;;;;;10.73;2.10;;;;;;;6.79;71.88;101807.69;8335839;28;20033;-63
2022/01/20 14:43:12;;;;;;;11.02;1.85;;;;;;;6.72;72.13;101811.69;8345696;28;20029;-63
2022/01/20 14:47:14;;;;;;;11.63;1.80;;;;;;;6.69;72.55;101806.47;8342419;28;20107;-63
2022/01/20 14:51:14;;;;;;;11.32;1.67;;;;;;;6.64;72.00;101813.91;8330121;28;20440;-63
2022/01/20 14:55:15;;;;;;;10.80;1.77;;;;;;;6.60;72.02;101811.47;8328503;28;20668;-63
2022/01/20 14:59:15;;;;;;;13.68;1.65;;;;;;;6.62;72.66;101814.97;8320304;28;20031;-63
2022/01/20 15:03:16;;;;;;;8.25;1.30;;;;;;;6.62;70.90;101818.50;8322684;28;20048;-63
2022/01/20 15:07:16;;;;;;;12.20;1.73;;;;;;;6.57;71.32;101827.78;8353286;28;20043;-63
2022/01/20 15:11:17;;;;;;;15.40;2.42;;;;;;;6.51;72.62;101842.41;8338448;28;20132;-63
2022/01/20 15:15:17;;;;;;;7.60;1.88;;;;;;;6.40;73.44;101842.09;8352040;28;20029;-63
2022/01/20 15:19:18;;;;;;;9.18;1.85;;;;;;;6.14;77.56;101834.56;8346097;28;20041;-63
2022/01/20 15:23:18;;;;;;;9.60;1.98;;;;;;;5.63;82.81;101843.44;8326606;28;20522;-63
2022/01/20 15:27:19;;;;;;;12.95;1.40;;;;;;;5.28;85.95;101843.47;8327118;28;20033;-63
2022/01/20 15:31:20;;;;;;;11.80;1.67;;;;;;;5.00;88.82;101835.03;8345500;28;20059;-63
2022/01/20 15:35:21;;;;;;;13.95;1.88;;;;;;;4.89;89.44;101831.97;8331789;28;20059;-63
2022/01/20 15:39:21;;;;;;;9.63;1.30;;;;;;;4.89;90.26;101831.97;8334724;28;20033;-63
2022/01/20 15:43:22;;;;;;;23.70;5.20;;;;;;;4.89;90.69;101834.66;8342741;28;20041;-63
2022/01/20 15:47:22;;;;;;;13.30;2.72;;;;;;;4.90;91.18;101833.69;8341907;28;20056;-63
2022/01/20 15:51:22;;;;;;;13.80;2.35;;;;;;;4.93;91.30;101833.56;8325660;28;20048;-63
2022/01/20 15:55:23;;;;;;;15.50;2.60;;;;;;;4.89;91.95;101843.56;8346575;28;20040;-63
2022/01/20 15:59:23;;;;;;;11.05;2.08;;;;;;;4.95;92.46;101842.41;8332542;28;20063;-63
2022/01/20 16:03:24;;;;;;;14.27;2.58;;;;;;;4.98;91.00;101858.34;8365840;28;20059;-63
2022/01/20 16:07:24;;;;;;;14.10;2.67;;;;;;;5.01;91.13;101858.19;8334076;28;20041;-63
2022/01/20 16:11:28;;;;;;;14.40;3.38;;;;;;;5.01;90.58;101864.44;8319983;28;20095;-63
2022/01/20 16:15:28;;;;;;;19.98;3.78;;;;;;;5.04;90.54;101868.75;8344358;28;20408;-63
2022/01/20 16:19:29;;;;;;;14.40;2.88;;;;;;;5.09;89.59;101878.31;8319099;28;20034;-63
2022/01/20 16:23:29;;;;;;;18.33;3.95;;;;;;;5.18;89.23;101877.88;8332045;28;20572;-63
2022/01/20 16:27:30;;;;;;;14.38;2.67;;;;;;;5.18;89.39;101893.06;8348809;28;20041;-63
2022/01/20 16:31:30;;;;;;;11.70;2.42;;;;;;;5.20;89.84;101907.28;8316859;28;22179;-63
2022/01/20 16:35:31;;;;;;;17.45;2.13;;;;;;;5.17;90.41;101904.75;8342112;28;20076;-63
2022/01/20 16:39:32;;;;;;;15.48;2.30;;;;;;;5.13;91.14;101921.94;8338466;28;20041;-63
2022/01/20 16:43:33;;;;;;;14.93;2.47;;;;;;;5.08;91.96;101923.94;8328841;28;20531;-63
2022/01/20 16:47:34;;;;;;;18.83;2.42;;;;;;;5.01;92.92;101928.75;8354522;28;20378;-63
2022/01/20 16:51:34;;;;;;;25.13;2.22;;;;;;;4.82;96.13;101916.25;8337057;28;20511;-64
2022/01/20 16:55:35;;;;;;;17.65;2.50;;;;;;;4.76;97.60;101908.50;8344664;28;20037;-63
2022/01/20 16:59:35;;;;;;;19.27;2.53;;;;;;;4.62;97.60;101924.31;8330933;28;20041;-63
2022/01/20 17:03:36;;;;;;;15.93;2.65;;;;;;;4.64;97.85;101922.44;8334481;28;20249;-63
2022/01/20 17:07:36;;;;;;;16.20;3.03;;;;;;;4.65;98.61;101932.22;8335770;28;20441;-63
2022/01/20 17:11:37;;;;;;;19.40;3.97;;;;;;;4.68;98.98;101934.75;8339021;28;20059;-64
2022/01/20 17:15:38;;;;;;;18.77;3.55;;;;;;;4.69;99.01;101941.84;8349531;28;20057;-64
2022/01/20 17:19:39;;;;;;;24.50;3.10;;;;;;;4.65;99.01;101937.56;8326151;28;20076;-63
2022/01/20 17:23:39;;;;;;;15.18;3.58;;;;;;;4.66;99.57;101947.38;8351868;28;20028;-63
2022/01/20 17:27:40;;;;;;;15.93;3.40;;;;;;;4.58;99.17;101944.16;8358375;28;20056;-63
2022/01/20 17:31:40;;;;;;;12.20;2.60;;;;;;;4.51;98.90;101953.41;8325392;28;20115;-63
2022/01/20 17:35:41;;;;;;;20.67;4.22;;;;;;;4.32;99.45;101947.06;8327309;28;20627;-63
2022/01/20 17:39:41;;;;;;;22.77;3.15;;;;;;;4.20;99.54;101943.13;8335953;28;20034;-63
2022/01/20 17:43:42;;;;;;;12.68;2.90;;;;;;;4.15;99.21;101955.84;8322420;28;20091;-63
2022/01/20 17:47:42;;;;;;;15.48;2.97;;;;;;;4.06;99.47;101967.78;8321842;28;20045;-63
2022/01/20 17:51:43;;;;;;;20.15;3.95;;;;;;;3.97;100.00;101968.16;8340990;28;20053;-63
2022/01/20 17:55:43;;;;;;;19.65;3.30;;;;;;;3.97;100.00;101962.81;8322076;28;20302;-63
2022/01/20 17:59:45;;;;;;;14.60;3.03;;;;;;;3.88;99.93;101968.56;8339030;28;20246;-63
2022/01/20 18:03:46;;;;;;;15.43;2.88;;;;;;;3.83;100.00;101973.25;8337786;28;20708;-63
2022/01/20 18:07:47;;;;;;;16.45;2.63;;;;;;;3.79;100.00;101984.97;8341163;28;20033;-63
2022/01/20 18:11:48;;;;;;;18.30;2.88;;;;;;;3.68;100.00;101976.53;8317411;28;20055;-63
2022/01/20 18:15:49;;;;;;;16.17;2.55;;;;;;;3.60;100.00;101978.63;8323965;28;20329;-63
2022/01/20 18:19:49;;;;;;;24.55;3.35;;;;;;;3.62;100.00;101975.88;8353888;28;20484;-63
2022/01/20 18:23:50;;;;;;;17.70;3.05;;;;;;;3.55;100.00;101994.00;8321315;28;20375;-63
2022/01/20 18:27:50;;;;;;;21.65;2.75;;;;;;;3.50;100.00;101995.97;8348940;28;20557;-63
2022/01/20 18:31:51;;;;;;;22.20;3.15;;;;;;;3.48;100.00;101997.81;8335997;28;20033;-63
2022/01/20 18:35:51;;;;;;;16.55;2.95;;;;;;;3.36;100.00;101990.28;8334297;28;20482;-63
2022/01/20 18:39:51;;;;;;;17.67;3.47;;;;;;;3.33;100.00;102002.91;8353572;28;20024;-63
2022/01/20 18:43:52;;;;;;;23.08;4.40;;;;;;;3.31;100.00;102008.31;8322778;28;20040;-63
2022/01/20 18:47:52;;;;;;;8.35;1.90;;;;;;;3.29;100.00;102020.84;8353164;28;20033;-63
2022/01/20 18:51:55;;;;;;;17.35;3.53;;;;;;;3.25;100.00;102035.25;8330759;28;20083;-63
2022/01/20 18:55:58;;;;;;;18.60;3.13;;;;;;;3.16;100.00;102043.63;8320986;28;20041;-63
2022/01/20 18:59:58;;;;;;;18.92;4.05;;;;;;;3.04;100.00;102046.75;8342155;28;20059;-63
2022/01/20 19:03:59;;;;;;;20.92;3.10;;;;;;;3.04;100.00;102046.75;8333567;28;20128;-63
2022/01/20 19:07:59;;;;;;;32.30;4.65;;;;;;;3.05;100.00;102036.94;8326762;28;20060;-63
2022/01/20 19:12:02;;;;;;;16.33;3.97;;;;;;;3.09;100.00;102044.78;8326628;28;20033;-63
2022/01/20 19:16:03;;;;;;;19.17;4.03;;;;;;;2.97;100.00;102045.22;8320095;28;20513;-63
2022/01/20 19:20:07;;;;;;;14.43;3.88;;;;;;;2.97;100.00;102058.59;8327976;28;20058;-63